sensor_id;sensor_type;location;lat;lon;timestamp;pressure;altitude;pressure_sealevel;temperature;humidity
75991;BME280;64673;52.276;10.560;2023-08-24T00:00:16;100979.06;;;16.04;91.68
75991;BME280;64673;52.276;10.560;2023-08-24T00:02:41;100983.25;;;16.15;91.27
75991;BME280;64673;52.276;10.560;2023-08-24T00:05:07;100965.03;;;16.16;90.58
75991;BME280;64673;52.276;10.560;2023-08-24T00:07:32;100977.31;;;16.13;91.49
75991;BME280;64673;52.276;10.560;2023-08-24T00:09:58;100971.00;;;15.99;90.97
75991;BME280;64673;52.276;10.560;2023-08-24T00:12:23;100979.19;;;15.99;92.17
75991;BME280;64673;52.276;10.560;2023-08-24T00:14:49;100978.84;;;16.00;91.90
75991;BME280;64673;52.276;10.560;2023-08-24T00:17:14;100977.59;;;16.11;90.64
75991;BME280;64673;52.276;10.560;2023-08-24T00:19:40;100968.63;;;16.11;90.66
75991;BME280;64673;52.276;10.560;2023-08-24T00:22:05;100979.22;;;16.31;90.04
75991;BME280;64673;52.276;10.560;2023-08-24T00:24:30;100959.31;;;15.98;92.66
75991;BME280;64673;52.276;10.560;2023-08-24T00:26:59;100967.25;;;15.95;91.96
75991;BME280;64673;52.276;10.560;2023-08-24T00:29:24;100969.53;;;15.88;92.38
75991;BME280;64673;52.276;10.560;2023-08-24T00:31:49;100963.66;;;15.81;91.99
75991;BME280;64673;52.276;10.560;2023-08-24T00:34:15;100972.69;;;15.76;92.17
75991;BME280;64673;52.276;10.560;2023-08-24T00:36:40;100974.66;;;15.70;93.29
75991;BME280;64673;52.276;10.560;2023-08-24T00:39:05;100974.81;;;15.60;93.26
75991;BME280;64673;52.276;10.560;2023-08-24T00:41:31;100968.00;;;15.63;93.09
75991;BME280;64673;52.276;10.560;2023-08-24T00:43:57;100979.09;;;15.66;93.18
75991;BME280;64673;52.276;10.560;2023-08-24T00:46:23;100970.56;;;15.54;93.20
75991;BME280;64673;52.276;10.560;2023-08-24T00:48:52;100963.47;;;15.53;92.94
75991;BME280;64673;52.276;10.560;2023-08-24T00:51:18;100969.72;;;15.54;93.95
75991;BME280;64673;52.276;10.560;2023-08-24T00:53:45;100974.09;;;15.50;93.72
75991;BME280;64673;52.276;10.560;2023-08-24T00:56:10;100968.66;;;15.50;93.46
75991;BME280;64673;52.276;10.560;2023-08-24T00:58:38;100974.09;;;15.55;94.05
75991;BME280;64673;52.276;10.560;2023-08-24T01:01:03;100976.31;;;15.48;94.65
75991;BME280;64673;52.276;10.560;2023-08-24T01:03:28;100976.31;;;15.48;94.43
75991;BME280;64673;52.276;10.560;2023-08-24T01:05:54;100965.66;;;15.51;94.20
75991;BME280;64673;52.276;10.560;2023-08-24T01:08:20;100968.81;;;15.39;94.32
75991;BME280;64673;52.276;10.560;2023-08-24T01:10:48;100968.28;;;15.37;94.58
75991;BME280;64673;52.276;10.560;2023-08-24T01:13:46;100964.25;;;15.35;94.47
75991;BME280;64673;52.276;10.560;2023-08-24T01:16:12;100965.50;;;15.43;94.16
75991;BME280;64673;52.276;10.560;2023-08-24T01:18:39;100970.94;;;15.43;94.33
75991;BME280;64673;52.276;10.560;2023-08-24T01:21:06;100958.81;;;15.35;94.99
75991;BME280;64673;52.276;10.560;2023-08-24T01:24:25;100965.00;;;15.41;94.60
75991;BME280;64673;52.276;10.560;2023-08-24T01:26:28;100962.94;;;15.32;95.29
75991;BME280;64673;52.276;10.560;2023-08-24T01:28:54;100969.72;;;15.54;94.22
75991;BME280;64673;52.276;10.560;2023-08-24T01:31:19;100976.28;;;15.71;92.92
75991;BME280;64673;52.276;10.560;2023-08-24T01:33:45;100963.13;;;15.60;93.94
75991;BME280;64673;52.276;10.560;2023-08-24T01:36:12;100985.34;;;15.67;93.27
75991;BME280;64673;52.276;10.560;2023-08-24T01:38:39;100979.53;;;15.73;93.46
75991;BME280;64673;52.276;10.560;2023-08-24T01:41:16;100984.16;;;15.49;93.95
75991;BME280;64673;52.276;10.560;2023-08-24T01:43:46;100984.31;;;15.63;93.68
75991;BME280;64673;52.276;10.560;2023-08-24T01:46:15;100979.69;;;15.39;94.48
75991;BME280;64673;52.276;10.560;2023-08-24T01:48:41;100973.00;;;15.51;93.94
75991;BME280;64673;52.276;10.560;2023-08-24T01:51:07;100972.28;;;15.45;94.04
75991;BME280;64673;52.276;10.560;2023-08-24T01:53:36;100975.63;;;15.37;95.09
75991;BME280;64673;52.276;10.560;2023-08-24T01:56:11;100979.63;;;15.45;94.73
75991;BME280;64673;52.276;10.560;2023-08-24T01:58:37;100971.72;;;15.24;95.73
75991;BME280;64673;52.276;10.560;2023-08-24T02:01:04;100963.94;;;15.60;93.10
75991;BME280;64673;52.276;10.560;2023-08-24T02:03:30;100973.72;;;15.61;93.93
75991;BME280;64673;52.276;10.560;2023-08-24T02:05:56;100964.75;;;15.37;94.85
75991;BME280;64673;52.276;10.560;2023-08-24T02:08:21;100962.34;;;15.35;95.10
75991;BME280;64673;52.276;10.560;2023-08-24T02:10:46;100948.81;;;15.30;95.27
75991;BME280;64673;52.276;10.560;2023-08-24T02:13:12;100952.41;;;15.26;95.04
75991;BME280;64673;52.276;10.560;2023-08-24T02:15:37;100951.00;;;15.28;95.66
75991;BME280;64673;52.276;10.560;2023-08-24T02:18:04;100956.53;;;15.23;96.00
75991;BME280;64673;52.276;10.560;2023-08-24T02:20:30;100952.84;;;15.14;95.93
75991;BME280;64673;52.276;10.560;2023-08-24T02:22:55;100957.50;;;15.09;96.57
75991;BME280;64673;52.276;10.560;2023-08-24T02:25:20;100955.97;;;15.02;96.92
75991;BME280;64673;52.276;10.560;2023-08-24T02:27:46;100941.19;;;14.85;97.01
75991;BME280;64673;52.276;10.560;2023-08-24T02:30:12;100956.56;;;14.94;97.49
75991;BME280;64673;52.276;10.560;2023-08-24T02:32:37;100950.13;;;14.90;96.72
75991;BME280;64673;52.276;10.560;2023-08-24T02:35:03;100947.22;;;14.82;96.69
75991;BME280;64673;52.276;10.560;2023-08-24T02:37:28;100944.44;;;14.87;96.68
75991;BME280;64673;52.276;10.560;2023-08-24T02:39:54;100944.56;;;14.77;97.52
75991;BME280;64673;52.276;10.560;2023-08-24T02:42:19;100940.75;;;14.78;97.02
75991;BME280;64673;52.276;10.560;2023-08-24T02:44:44;100924.50;;;14.73;96.98
75991;BME280;64673;52.276;10.560;2023-08-24T02:47:10;100934.31;;;14.69;97.30
75991;BME280;64673;52.276;10.560;2023-08-24T02:49:35;100947.34;;;14.72;97.71
75991;BME280;64673;52.276;10.560;2023-08-24T02:52:00;100937.38;;;14.86;96.99
75991;BME280;64673;52.276;10.560;2023-08-24T02:54:26;100933.13;;;14.80;96.92
75991;BME280;64673;52.276;10.560;2023-08-24T02:56:51;100934.25;;;14.74;97.37
75991;BME280;64673;52.276;10.560;2023-08-24T02:59:16;100927.44;;;14.76;97.58
75991;BME280;64673;52.276;10.560;2023-08-24T03:01:41;100935.88;;;14.75;97.13
75991;BME280;64673;52.276;10.560;2023-08-24T03:04:07;100926.19;;;14.69;97.15
75991;BME280;64673;52.276;10.560;2023-08-24T03:06:32;100926.88;;;14.79;97.34
75991;BME280;64673;52.276;10.560;2023-08-24T03:09:00;100917.25;;;14.92;95.66
75991;BME280;64673;52.276;10.560;2023-08-24T03:11:26;100923.81;;;14.86;96.01
75991;BME280;64673;52.276;10.560;2023-08-24T03:13:51;100912.31;;;14.70;96.68
75991;BME280;64673;52.276;10.560;2023-08-24T03:16:16;100916.53;;;14.57;96.67
75991;BME280;64673;52.276;10.560;2023-08-24T03:18:42;100926.19;;;14.69;96.53
75991;BME280;64673;52.276;10.560;2023-08-24T03:21:07;100927.84;;;14.64;96.48
75991;BME280;64673;52.276;10.560;2023-08-24T03:23:32;100924.91;;;14.61;97.25
75991;BME280;64673;52.276;10.560;2023-08-24T03:25:58;100924.09;;;14.60;97.08
75991;BME280;64673;52.276;10.560;2023-08-24T03:28:23;100926.84;;;14.55;97.23
75991;BME280;64673;52.276;10.560;2023-08-24T03:30:50;100921.44;;;14.55;96.50
75991;BME280;64673;52.276;10.560;2023-08-24T03:33:16;100917.25;;;14.39;97.00
75991;BME280;64673;52.276;10.560;2023-08-24T03:35:42;100920.91;;;14.53;97.24
75991;BME280;64673;52.276;10.560;2023-08-24T03:38:07;100916.56;;;14.52;96.76
75991;BME280;64673;52.276;10.560;2023-08-24T03:40:33;100912.84;;;14.43;97.01
75991;BME280;64673;52.276;10.560;2023-08-24T03:42:58;100915.28;;;14.45;97.03
75991;BME280;64673;52.276;10.560;2023-08-24T03:45:24;100908.78;;;14.46;97.46
75991;BME280;64673;52.276;10.560;2023-08-24T03:47:49;100907.97;;;14.45;97.75
75991;BME280;64673;52.276;10.560;2023-08-24T03:50:15;100905.31;;;14.35;97.14
75991;BME280;64673;52.276;10.560;2023-08-24T03:52:41;100917.25;;;14.39;97.56
75991;BME280;64673;52.276;10.560;2023-08-24T03:55:07;100897.56;;;14.23;98.01
75991;BME280;64673;52.276;10.560;2023-08-24T03:57:32;100910.81;;;14.30;97.34
75991;BME280;64673;52.276;10.560;2023-08-24T03:59:58;100923.25;;;14.31;97.24
75991;BME280;64673;52.276;10.560;2023-08-24T04:02:23;100912.91;;;14.38;97.58
75991;BME280;64673;52.276;10.560;2023-08-24T04:04:50;100918.88;;;14.35;98.00
75991;BME280;64673;52.276;10.560;2023-08-24T04:07:15;100913.81;;;14.28;97.38
75991;BME280;64673;52.276;10.560;2023-08-24T04:09:41;100918.31;;;14.38;97.26
75991;BME280;64673;52.276;10.560;2023-08-24T04:12:06;100917.78;;;14.36;97.20
75991;BME280;64673;52.276;10.560;2023-08-24T04:14:32;100911.72;;;14.49;95.92
75991;BME280;64673;52.276;10.560;2023-08-24T04:16:57;100908.75;;;14.51;96.07
75991;BME280;64673;52.276;10.560;2023-08-24T04:19:22;100906.25;;;14.54;96.38
75991;BME280;64673;52.276;10.560;2023-08-24T04:21:48;100919.28;;;14.52;96.58
75991;BME280;64673;52.276;10.560;2023-08-24T04:24:13;100931.75;;;14.53;96.71
75991;BME280;64673;52.276;10.560;2023-08-24T04:26:38;100933.38;;;14.54;96.36
75991;BME280;64673;52.276;10.560;2023-08-24T04:29:04;100924.22;;;14.50;96.37
75991;BME280;64673;52.276;10.560;2023-08-24T04:31:29;100929.38;;;14.47;96.82
75991;BME280;64673;52.276;10.560;2023-08-24T04:33:54;100927.38;;;14.57;95.73
75991;BME280;64673;52.276;10.560;2023-08-24T04:36:20;100938.94;;;14.68;95.97
75991;BME280;64673;52.276;10.560;2023-08-24T04:38:45;100939.63;;;14.55;96.91
75991;BME280;64673;52.276;10.560;2023-08-24T04:41:10;100933.97;;;14.51;97.93
75991;BME280;64673;52.276;10.560;2023-08-24T04:43:37;100944.88;;;14.46;96.95
75991;BME280;64673;52.276;10.560;2023-08-24T04:46:03;100936.72;;;14.46;96.76
75991;BME280;64673;52.276;10.560;2023-08-24T04:48:28;100946.31;;;14.62;96.24
75991;BME280;64673;52.276;10.560;2023-08-24T04:51:00;100959.88;;;14.62;95.88
75991;BME280;64673;52.276;10.560;2023-08-24T04:53:27;100960.28;;;14.80;95.77
75991;BME280;64673;52.276;10.560;2023-08-24T04:55:52;100939.47;;;14.94;94.99
75991;BME280;64673;52.276;10.560;2023-08-24T04:58:18;100960.97;;;14.90;96.66
75991;BME280;64673;52.276;10.560;2023-08-24T05:00:44;100962.63;;;14.86;96.98
75991;BME280;64673;52.276;10.560;2023-08-24T05:03:10;100952.34;;;14.83;96.55
75991;BME280;64673;52.276;10.560;2023-08-24T05:05:36;100959.34;;;14.89;95.92
75991;BME280;64673;52.276;10.560;2023-08-24T05:08:03;100953.13;;;14.89;95.86
75991;BME280;64673;52.276;10.560;2023-08-24T05:10:32;100955.53;;;14.90;95.84
75991;BME280;64673;52.276;10.560;2023-08-24T05:12:58;100955.16;;;15.02;95.49
75991;BME280;64673;52.276;10.560;2023-08-24T05:15:23;100958.75;;;15.16;95.22
75991;BME280;64673;52.276;10.560;2023-08-24T05:17:49;100950.50;;;15.26;96.00
75991;BME280;64673;52.276;10.560;2023-08-24T05:20:15;100955.75;;;15.42;94.49
75991;BME280;64673;52.276;10.560;2023-08-24T05:22:40;100956.41;;;15.52;93.58
75991;BME280;64673;52.276;10.560;2023-08-24T05:25:06;100955.72;;;15.65;94.82
75991;BME280;64673;52.276;10.560;2023-08-24T05:27:31;100951.97;;;15.80;93.24
75991;BME280;64673;52.276;10.560;2023-08-24T05:29:57;100959.38;;;15.93;93.63
75991;BME280;64673;52.276;10.560;2023-08-24T05:32:22;100969.25;;;16.22;91.76
75991;BME280;64673;52.276;10.560;2023-08-24T05:34:48;100969.63;;;16.34;92.66
75991;BME280;64673;52.276;10.560;2023-08-24T05:37:13;100964.13;;;16.53;91.02
75991;BME280;64673;52.276;10.560;2023-08-24T05:39:39;100977.09;;;16.74;87.68
75991;BME280;64673;52.276;10.560;2023-08-24T05:42:05;100973.69;;;16.82;87.44
75991;BME280;64673;52.276;10.560;2023-08-24T05:44:30;100965.22;;;16.98;89.58
75991;BME280;64673;52.276;10.560;2023-08-24T05:46:55;100952.22;;;16.95;90.90
75991;BME280;64673;52.276;10.560;2023-08-24T05:49:21;100957.16;;;17.20;92.35
75991;BME280;64673;52.276;10.560;2023-08-24T05:51:46;100956.94;;;17.30;93.01
75991;BME280;64673;52.276;10.560;2023-08-24T05:54:12;100956.84;;;17.35;91.40
75991;BME280;64673;52.276;10.560;2023-08-24T05:56:38;100950.28;;;17.36;88.67
75991;BME280;64673;52.276;10.560;2023-08-24T05:59:04;100954.88;;;17.49;92.76
75991;BME280;64673;52.276;10.560;2023-08-24T06:01:29;100953.06;;;17.59;92.62
75991;BME280;64673;52.276;10.560;2023-08-24T06:03:54;100955.47;;;17.60;92.69
75991;BME280;64673;52.276;10.560;2023-08-24T06:06:20;100960.94;;;17.74;92.74
75991;BME280;64673;52.276;10.560;2023-08-24T06:08:45;100951.63;;;17.75;92.20
75991;BME280;64673;52.276;10.560;2023-08-24T06:11:11;100960.69;;;17.84;91.29
75991;BME280;64673;52.276;10.560;2023-08-24T06:13:36;100963.31;;;17.89;87.42
75991;BME280;64673;52.276;10.560;2023-08-24T06:16:02;100963.06;;;17.99;88.20
75991;BME280;64673;52.276;10.560;2023-08-24T06:18:28;100963.75;;;18.05;88.04
75991;BME280;64673;52.276;10.560;2023-08-24T06:20:54;100957.69;;;18.08;89.02
75991;BME280;64673;52.276;10.560;2023-08-24T06:23:19;100967.50;;;18.09;90.22
75991;BME280;64673;52.276;10.560;2023-08-24T06:25:45;100947.06;;;18.06;89.33
75991;BME280;64673;52.276;10.560;2023-08-24T06:28:11;100957.19;;;18.06;88.97
75991;BME280;64673;52.276;10.560;2023-08-24T06:30:40;100940.06;;;18.14;89.23
75991;BME280;64673;52.276;10.560;2023-08-24T06:33:06;100929.06;;;18.05;88.05
75991;BME280;64673;52.276;10.560;2023-08-24T06:35:33;100934.09;;;18.12;89.33
75991;BME280;64673;52.276;10.560;2023-08-24T06:37:59;100932.25;;;18.21;87.89
75991;BME280;64673;52.276;10.560;2023-08-24T06:40:25;100929.03;;;18.19;89.36
75991;BME280;64673;52.276;10.560;2023-08-24T06:42:50;100935.91;;;18.16;88.90
75991;BME280;64673;52.276;10.560;2023-08-24T06:45:16;100938.38;;;18.26;86.39
75991;BME280;64673;52.276;10.560;2023-08-24T06:47:43;100923.16;;;18.34;90.83
75991;BME280;64673;52.276;10.560;2023-08-24T06:50:09;100921.47;;;18.47;89.03
75991;BME280;64673;52.276;10.560;2023-08-24T06:52:35;100904.72;;;18.40;89.36
75991;BME280;64673;52.276;10.560;2023-08-24T06:55:00;100918.91;;;18.50;87.70
75991;BME280;64673;52.276;10.560;2023-08-24T06:57:26;100921.03;;;18.53;87.97
75991;BME280;64673;52.276;10.560;2023-08-24T06:59:51;100915.88;;;18.52;88.81
75991;BME280;64673;52.276;10.560;2023-08-24T07:02:17;100920.69;;;18.55;89.34
75991;BME280;64673;52.276;10.560;2023-08-24T07:04:43;100907.94;;;18.64;89.06
75991;BME280;64673;52.276;10.560;2023-08-24T07:07:09;100896.91;;;18.55;87.82
75991;BME280;64673;52.276;10.560;2023-08-24T07:09:35;100902.00;;;18.71;87.30
75991;BME280;64673;52.276;10.560;2023-08-24T07:12:04;100893.03;;;18.79;87.63
75991;BME280;64673;52.276;10.560;2023-08-24T07:14:35;100896.56;;;18.79;88.23
75991;BME280;64673;52.276;10.560;2023-08-24T07:17:00;100900.13;;;18.88;87.67
75991;BME280;64673;52.276;10.560;2023-08-24T07:19:25;100896.16;;;18.94;88.61
75991;BME280;64673;52.276;10.560;2023-08-24T07:21:52;100888.78;;;19.04;87.53
75991;BME280;64673;52.276;10.560;2023-08-24T07:24:17;100883.19;;;19.17;84.88
75991;BME280;64673;52.276;10.560;2023-08-24T07:26:44;100876.09;;;19.25;87.09
75991;BME280;64673;52.276;10.560;2023-08-24T07:29:10;100873.38;;;19.42;84.68
75991;BME280;64673;52.276;10.560;2023-08-24T07:31:36;100866.66;;;19.48;83.81
75991;BME280;64673;52.276;10.560;2023-08-24T07:34:02;100880.50;;;19.52;85.32
75991;BME280;64673;52.276;10.560;2023-08-24T07:36:28;100887.88;;;19.43;84.92
75991;BME280;64673;52.276;10.560;2023-08-24T07:38:53;100881.91;;;19.41;84.13
75991;BME280;64673;52.276;10.560;2023-08-24T07:41:19;100888.84;;;19.38;83.58
75991;BME280;64673;52.276;10.560;2023-08-24T07:43:44;100891.91;;;19.45;83.54
75991;BME280;64673;52.276;10.560;2023-08-24T07:46:09;100896.06;;;19.43;82.88
75991;BME280;64673;52.276;10.560;2023-08-24T07:48:35;100899.00;;;19.55;83.57
75991;BME280;64673;52.276;10.560;2023-08-24T07:51:01;100895.97;;;19.56;83.36
75991;BME280;64673;52.276;10.560;2023-08-24T07:53:26;100901.88;;;19.50;82.00
75991;BME280;64673;52.276;10.560;2023-08-24T07:55:54;100898.84;;;19.51;82.93
75991;BME280;64673;52.276;10.560;2023-08-24T07:58:22;100886.63;;;19.57;82.07
75991;BME280;64673;52.276;10.560;2023-08-24T08:00:49;100889.34;;;19.57;82.56
75991;BME280;64673;52.276;10.560;2023-08-24T08:03:16;100889.84;;;19.77;81.88
75991;BME280;64673;52.276;10.560;2023-08-24T08:05:41;100901.44;;;19.91;82.25
75991;BME280;64673;52.276;10.560;2023-08-24T08:08:06;100889.00;;;20.02;81.76
75991;BME280;64673;52.276;10.560;2023-08-24T08:10:32;100888.13;;;20.27;80.97
75991;BME280;64673;52.276;10.560;2023-08-24T08:12:57;100877.81;;;20.41;79.49
75991;BME280;64673;52.276;10.560;2023-08-24T08:15:22;100873.28;;;20.45;78.30
75991;BME280;64673;52.276;10.560;2023-08-24T08:17:48;100859.94;;;20.44;78.10
75991;BME280;64673;52.276;10.560;2023-08-24T08:20:14;100859.19;;;20.64;75.93
75991;BME280;64673;52.276;10.560;2023-08-24T08:22:39;100846.56;;;20.72;77.37
75991;BME280;64673;52.276;10.560;2023-08-24T08:25:06;100852.38;;;20.70;78.18
75991;BME280;64673;52.276;10.560;2023-08-24T08:27:31;100849.69;;;20.91;76.12
75991;BME280;64673;52.276;10.560;2023-08-24T08:29:58;100851.13;;;20.97;76.80
75991;BME280;64673;52.276;10.560;2023-08-24T08:32:23;100851.47;;;21.16;76.61
75991;BME280;64673;52.276;10.560;2023-08-24T08:34:53;100853.03;;;21.26;75.42
75991;BME280;64673;52.276;10.560;2023-08-24T08:37:18;100852.25;;;21.26;75.30
75991;BME280;64673;52.276;10.560;2023-08-24T08:39:43;100841.41;;;21.29;75.29
75991;BME280;64673;52.276;10.560;2023-08-24T08:42:13;100846.94;;;21.41;75.19
75991;BME280;64673;52.276;10.560;2023-08-24T08:44:41;100853.53;;;21.49;74.48
75991;BME280;64673;52.276;10.560;2023-08-24T08:47:07;100848.28;;;21.56;74.94
75991;BME280;64673;52.276;10.560;2023-08-24T08:49:34;100847.81;;;21.54;74.06
75991;BME280;64673;52.276;10.560;2023-08-24T08:52:01;100841.97;;;21.76;72.98
75991;BME280;64673;52.276;10.560;2023-08-24T08:54:26;100836.50;;;21.88;72.71
75991;BME280;64673;52.276;10.560;2023-08-24T08:56:52;100841.75;;;21.81;70.61
75991;BME280;64673;52.276;10.560;2023-08-24T08:59:17;100846.81;;;21.91;72.64
75991;BME280;64673;52.276;10.560;2023-08-24T09:01:44;100849.78;;;22.19;71.68
75991;BME280;64673;52.276;10.560;2023-08-24T09:04:11;100847.72;;;22.16;70.71
75991;BME280;64673;52.276;10.560;2023-08-24T09:06:36;100844.63;;;22.18;71.32
75991;BME280;64673;52.276;10.560;2023-08-24T09:09:02;100839.47;;;22.16;69.96
75991;BME280;64673;52.276;10.560;2023-08-24T09:11:28;100837.88;;;22.27;69.85
75991;BME280;64673;52.276;10.560;2023-08-24T09:13:53;100830.22;;;22.33;70.38
75991;BME280;64673;52.276;10.560;2023-08-24T09:16:19;100829.09;;;22.34;68.57
75991;BME280;64673;52.276;10.560;2023-08-24T09:18:46;100826.13;;;22.51;67.17
75991;BME280;64673;52.276;10.560;2023-08-24T09:21:14;100833.09;;;22.61;67.04
75991;BME280;64673;52.276;10.560;2023-08-24T09:23:44;100845.97;;;22.81;68.70
75991;BME280;64673;52.276;10.560;2023-08-24T09:26:11;100845.06;;;22.77;66.38
75991;BME280;64673;52.276;10.560;2023-08-24T09:28:37;100841.69;;;22.72;67.41
75991;BME280;64673;52.276;10.560;2023-08-24T09:31:04;100843.75;;;22.75;66.24
75991;BME280;64673;52.276;10.560;2023-08-24T09:33:30;100834.25;;;23.09;63.17
75991;BME280;64673;52.276;10.560;2023-08-24T09:35:56;100847.53;;;23.07;64.08
75991;BME280;64673;52.276;10.560;2023-08-24T09:38:26;100842.38;;;23.05;65.35
75991;BME280;64673;52.276;10.560;2023-08-24T09:40:53;100841.44;;;23.13;64.09
75991;BME280;64673;52.276;10.560;2023-08-24T09:43:19;100845.19;;;23.33;63.10
75991;BME280;64673;52.276;10.560;2023-08-24T09:45:55;100835.44;;;23.35;61.16
75991;BME280;64673;52.276;10.560;2023-08-24T09:48:22;100840.88;;;23.60;61.73
75991;BME280;64673;52.276;10.560;2023-08-24T09:50:50;100837.94;;;23.81;61.39
75991;BME280;64673;52.276;10.560;2023-08-24T09:56:01;100804.63;;;23.58;62.28
75991;BME280;64673;52.276;10.560;2023-08-24T09:58:28;100805.97;;;23.64;64.41
75991;BME280;64673;52.276;10.560;2023-08-24T10:00:55;100819.69;;;23.76;62.13
75991;BME280;64673;52.276;10.560;2023-08-24T10:03:25;100817.31;;;23.90;61.64
75991;BME280;64673;52.276;10.560;2023-08-24T10:05:52;100800.38;;;24.04;60.48
75991;BME280;64673;52.276;10.560;2023-08-24T10:08:26;100791.38;;;24.07;61.03
75991;BME280;64673;52.276;10.560;2023-08-24T10:10:56;100800.03;;;24.21;62.35
75991;BME280;64673;52.276;10.560;2023-08-24T10:13:36;100790.28;;;24.24;60.25
75991;BME280;64673;52.276;10.560;2023-08-24T10:16:05;100777.25;;;24.08;60.72
75991;BME280;64673;52.276;10.560;2023-08-24T10:18:32;100774.25;;;24.14;63.33
75991;BME280;64673;52.276;10.560;2023-08-24T10:20:59;100769.03;;;24.24;60.37
75991;BME280;64673;52.276;10.560;2023-08-24T10:23:25;100766.63;;;24.23;60.27
75991;BME280;64673;52.276;10.560;2023-08-24T10:25:53;100767.06;;;24.25;60.07
75991;BME280;64673;52.276;10.560;2023-08-24T10:28:19;100759.13;;;24.39;57.49
75991;BME280;64673;52.276;10.560;2023-08-24T10:30:45;100753.81;;;24.46;60.24
75991;BME280;64673;52.276;10.560;2023-08-24T10:33:13;100744.91;;;24.37;59.20
75991;BME280;64673;52.276;10.560;2023-08-24T10:35:39;100746.88;;;24.36;58.92
75991;BME280;64673;52.276;10.560;2023-08-24T10:38:05;100745.88;;;24.44;59.59
75991;BME280;64673;52.276;10.560;2023-08-24T10:40:32;100744.19;;;24.40;60.44
75991;BME280;64673;52.276;10.560;2023-08-24T10:42:58;100744.78;;;24.49;59.71
75991;BME280;64673;52.276;10.560;2023-08-24T10:45:24;100728.59;;;24.48;59.39
75991;BME280;64673;52.276;10.560;2023-08-24T10:47:52;100738.59;;;24.71;59.83
75991;BME280;64673;52.276;10.560;2023-08-24T10:50:19;100727.56;;;24.71;59.68
75991;BME280;64673;52.276;10.560;2023-08-24T10:52:45;100700.16;;;24.78;59.63
75991;BME280;64673;52.276;10.560;2023-08-24T10:55:25;100700.56;;;24.96;59.46
75991;BME280;64673;52.276;10.560;2023-08-24T10:57:58;100710.28;;;25.09;57.07
75991;BME280;64673;52.276;10.560;2023-08-24T11:00:29;100700.03;;;25.10;56.51
75991;BME280;64673;52.276;10.560;2023-08-24T11:02:55;100704.38;;;25.11;56.88
75991;BME280;64673;52.276;10.560;2023-08-24T11:05:24;100700.81;;;25.30;56.57
75991;BME280;64673;52.276;10.560;2023-08-24T11:08:00;100700.66;;;25.23;55.36
75991;BME280;64673;52.276;10.560;2023-08-24T11:10:46;100704.22;;;25.62;59.74
75991;BME280;64673;52.276;10.560;2023-08-24T11:13:18;100710.31;;;25.51;54.50
75991;BME280;64673;52.276;10.560;2023-08-24T11:15:50;100714.50;;;25.65;53.63
75991;BME280;64673;52.276;10.560;2023-08-24T11:18:28;100717.44;;;25.75;53.05
75991;BME280;64673;52.276;10.560;2023-08-24T11:21:00;100714.25;;;25.96;54.05
75991;BME280;64673;52.276;10.560;2023-08-24T11:23:27;100706.53;;;26.05;54.15
75991;BME280;64673;52.276;10.560;2023-08-24T11:25:54;100706.94;;;26.07;50.59
75991;BME280;64673;52.276;10.560;2023-08-24T11:28:22;100698.72;;;26.11;52.73
75991;BME280;64673;52.276;10.560;2023-08-24T11:30:49;100703.34;;;26.03;51.03
75991;BME280;64673;52.276;10.560;2023-08-24T11:33:16;100708.22;;;26.13;52.47
75991;BME280;64673;52.276;10.560;2023-08-24T11:35:44;100709.06;;;26.17;52.66
75991;BME280;64673;52.276;10.560;2023-08-24T11:38:11;100692.47;;;26.17;51.79
75991;BME280;64673;52.276;10.560;2023-08-24T11:40:37;100696.78;;;26.38;52.60
75991;BME280;64673;52.276;10.560;2023-08-24T11:43:03;100702.88;;;26.24;49.09
75991;BME280;64673;52.276;10.560;2023-08-24T11:45:32;100703.53;;;26.40;53.17
75991;BME280;64673;52.276;10.560;2023-08-24T11:48:02;100704.47;;;26.51;52.16
75991;BME280;64673;52.276;10.560;2023-08-24T11:50:29;100693.91;;;26.57;50.46
75991;BME280;64673;52.276;10.560;2023-08-24T11:52:55;100696.63;;;26.27;47.73
75991;BME280;64673;52.276;10.560;2023-08-24T11:55:24;100694.69;;;26.57;50.26
75991;BME280;64673;52.276;10.560;2023-08-24T11:57:50;100669.69;;;26.50;51.10
75991;BME280;64673;52.276;10.560;2023-08-24T12:00:18;100688.25;;;26.50;49.01
75991;BME280;64673;52.276;10.560;2023-08-24T12:02:45;100675.28;;;26.28;48.11
75991;BME280;64673;52.276;10.560;2023-08-24T12:05:21;100659.56;;;26.32;49.67
75991;BME280;64673;52.276;10.560;2023-08-24T12:07:47;100659.75;;;26.19;48.55
75991;BME280;64673;52.276;10.560;2023-08-24T12:10:12;100653.31;;;26.38;48.18
75991;BME280;64673;52.276;10.560;2023-08-24T12:12:38;100640.03;;;26.47;49.44
75991;BME280;64673;52.276;10.560;2023-08-24T12:15:03;100632.94;;;26.50;49.01
75991;BME280;64673;52.276;10.560;2023-08-24T12:17:29;100620.97;;;26.72;50.17
75991;BME280;64673;52.276;10.560;2023-08-24T12:20:00;100631.59;;;26.70;50.23
75991;BME280;64673;52.276;10.560;2023-08-24T12:22:31;100618.97;;;26.69;47.63
75991;BME280;64673;52.276;10.560;2023-08-24T12:24:56;100620.13;;;26.98;52.67
75991;BME280;64673;52.276;10.560;2023-08-24T12:27:26;100608.41;;;27.12;49.88
75991;BME280;64673;52.276;10.560;2023-08-24T12:29:52;100611.66;;;27.21;47.55
75991;BME280;64673;52.276;10.560;2023-08-24T12:32:18;100603.34;;;26.87;48.87
75991;BME280;64673;52.276;10.560;2023-08-24T12:34:49;100605.31;;;27.20;48.87
75991;BME280;64673;52.276;10.560;2023-08-24T12:37:17;100605.31;;;27.20;48.65
75991;BME280;64673;52.276;10.560;2023-08-24T12:39:42;100592.75;;;27.30;48.01